createdAt,value
2023-07-17T00:00:13.106Z,64.40
2023-07-17T00:03:03.942Z,64.53
2023-07-17T00:05:35.503Z,64.64
2023-07-17T00:08:07.921Z,64.77
2023-07-17T00:10:38.712Z,65.00
2023-07-17T00:13:09.427Z,65.44
2023-07-17T00:15:38.541Z,65.65
2023-07-17T00:18:09.432Z,65.67
2023-07-17T00:20:40.256Z,66.02
2023-07-17T00:23:11.164Z,66.06
2023-07-17T00:25:42.015Z,66.07
2023-07-17T00:28:12.771Z,66.05
2023-07-17T00:30:43.606Z,66.14
2023-07-17T00:33:14.462Z,66.67
2023-07-17T00:35:45.559Z,67.35
2023-07-17T00:38:16.442Z,67.85
2023-07-17T00:40:47.708Z,67.92
2023-07-17T00:43:16.879Z,68.21
2023-07-17T00:45:48.736Z,68.68
2023-07-17T00:48:19.506Z,68.72
2023-07-17T00:50:48.669Z,69.07
2023-07-17T00:53:19.454Z,68.85
2023-07-17T00:55:48.718Z,69.12
2023-07-17T00:58:19.892Z,69.17
2023-07-17T01:00:50.711Z,69.65
2023-07-17T01:03:19.909Z,69.80
2023-07-17T01:05:50.783Z,70.17
2023-07-17T01:08:19.954Z,70.53
2023-07-17T01:10:51.699Z,70.83
2023-07-17T01:13:22.377Z,70.87
2023-07-17T01:15:53.124Z,70.85
2023-07-17T01:18:22.289Z,70.37
2023-07-17T01:20:53.198Z,70.89
2023-07-17T01:23:24.004Z,70.75
2023-07-17T01:25:56.657Z,70.88
2023-07-17T01:28:28.184Z,71.46
2023-07-17T01:30:58.938Z,71.86
2023-07-17T01:33:28.127Z,71.95
2023-07-17T01:35:58.868Z,72.34
2023-07-17T01:38:27.972Z,72.25
2023-07-17T01:40:59.053Z,72.66
2023-07-17T01:43:29.802Z,72.33
2023-07-17T01:46:00.636Z,72.56
2023-07-17T01:48:31.409Z,73.47
2023-07-17T01:51:02.157Z,73.46
2023-07-17T01:53:31.270Z,73.94
2023-07-17T01:56:02.104Z,74.27
2023-07-17T01:58:32.964Z,74.45
2023-07-17T02:01:02.140Z,74.56
2023-07-17T02:03:32.986Z,74.45
2023-07-17T02:06:03.784Z,74.66
2023-07-17T02:08:34.549Z,74.93
2023-07-17T02:11:05.540Z,74.82
2023-07-17T02:13:36.274Z,74.98
2023-07-17T02:16:06.006Z,75.15
2023-07-17T02:18:36.763Z,75.22
2023-07-17T02:21:07.513Z,74.76
2023-07-17T02:23:36.721Z,74.20
2023-07-17T02:26:07.653Z,73.81
2023-07-17T02:28:38.375Z,73.49
2023-07-17T02:31:07.725Z,72.88
2023-07-17T02:33:38.508Z,72.55
2023-07-17T02:36:09.418Z,72.17
2023-07-17T02:38:38.574Z,71.99
2023-07-17T02:41:09.261Z,72.02
2023-07-17T02:43:40.037Z,71.68
2023-07-17T02:46:09.179Z,71.76
2023-07-17T02:48:40.097Z,71.77
2023-07-17T02:51:10.902Z,71.75
2023-07-17T02:53:40.135Z,71.59
2023-07-17T02:56:10.865Z,71.79
2023-07-17T02:58:42.701Z,71.61
2023-07-17T03:01:13.533Z,71.43
2023-07-17T03:03:44.380Z,71.51
2023-07-17T03:06:15.173Z,71.55
2023-07-17T03:08:44.370Z,71.39
2023-07-17T03:11:15.266Z,71.48
2023-07-17T03:13:46.100Z,71.37
2023-07-17T03:16:15.386Z,71.38
2023-07-17T03:18:46.225Z,71.62
2023-07-17T03:21:17.205Z,71.55
2023-07-17T03:23:48.847Z,71.95
2023-07-17T03:26:19.603Z,72.14
2023-07-17T03:28:48.800Z,72.27
2023-07-17T03:31:19.903Z,72.19
2023-07-17T03:33:50.887Z,71.85
2023-07-17T03:36:20.129Z,71.75
2023-07-17T03:38:50.866Z,71.48
2023-07-17T03:41:20.328Z,71.34
2023-07-17T03:43:51.194Z,71.21
2023-07-17T03:46:20.300Z,71.35
2023-07-17T03:48:51.142Z,71.44
2023-07-17T03:51:22.123Z,71.32
2023-07-17T03:53:53.404Z,71.16
2023-07-17T03:56:24.197Z,71.27
2023-07-17T03:58:54.970Z,71.38
2023-07-17T04:01:25.958Z,70.67
2023-07-17T04:03:56.826Z,70.39
2023-07-17T04:06:27.578Z,70.08
2023-07-17T04:08:58.381Z,70.30
2023-07-17T04:11:29.268Z,69.80
2023-07-17T04:14:00.363Z,69.37
2023-07-17T04:16:31.452Z,68.15
2023-07-17T04:19:02.244Z,64.94
2023-07-17T04:21:33.059Z,61.92
2023-07-17T04:24:04.063Z,59.34
2023-07-17T04:26:34.839Z,57.11
2023-07-17T04:29:05.677Z,54.54
2023-07-17T04:31:36.449Z,53.39
2023-07-17T04:34:07.280Z,52.22
2023-07-17T04:36:38.022Z,50.96
2023-07-17T04:39:08.809Z,49.22
2023-07-17T04:41:39.667Z,47.25
2023-07-17T04:44:10.518Z,45.67
2023-07-17T04:46:41.281Z,44.70
2023-07-17T04:49:12.084Z,43.42
2023-07-17T04:51:42.805Z,41.39
2023-07-17T04:54:13.602Z,40.45
2023-07-17T04:56:44.323Z,39.52
2023-07-17T04:59:15.167Z,38.38
2023-07-17T05:01:45.916Z,38.18
2023-07-17T05:04:16.799Z,37.40
2023-07-17T05:06:47.539Z,36.20
2023-07-17T05:09:18.354Z,35.89
2023-07-17T05:11:49.363Z,35.25
2023-07-17T05:14:20.775Z,34.94
2023-07-17T05:16:55.348Z,34.77
2023-07-17T05:19:26.564Z,34.34
2023-07-17T05:21:57.306Z,34.17
2023-07-17T05:24:28.121Z,33.82
2023-07-17T05:26:58.979Z,33.35
2023-07-17T05:29:35.784Z,32.69
2023-07-17T05:32:09.545Z,32.02
2023-07-17T05:34:40.416Z,31.37
2023-07-17T05:37:11.178Z,30.85
2023-07-17T05:39:41.989Z,30.29
2023-07-17T05:42:12.922Z,30.41
2023-07-17T05:44:43.738Z,31.01
2023-07-17T05:47:14.830Z,31.84
2023-07-17T05:49:45.631Z,32.63
2023-07-17T05:52:16.607Z,33.28
2023-07-17T05:54:47.437Z,33.74
2023-07-17T05:57:18.246Z,34.15
2023-07-17T05:59:49.109Z,34.27
2023-07-17T06:02:19.936Z,34.44
2023-07-17T06:04:51.139Z,35.04
2023-07-17T06:07:28.566Z,35.29
2023-07-17T06:09:59.467Z,35.89
2023-07-17T06:16:03.710Z,36.89
2023-07-17T06:18:43.416Z,37.68
2023-07-17T06:21:14.295Z,38.39
2023-07-17T06:23:45.193Z,38.65
2023-07-17T06:26:16.178Z,39.29
2023-07-17T06:28:47.206Z,39.31
2023-07-17T06:31:18.465Z,39.31
2023-07-17T06:33:52.995Z,39.57
2023-07-17T06:37:08.444Z,40.14
2023-07-17T06:39:42.367Z,40.44
2023-07-17T06:42:17.772Z,40.69
2023-07-17T06:44:53.913Z,40.49
2023-07-17T06:48:02.626Z,40.42
2023-07-17T06:50:40.393Z,40.69
2023-07-17T06:53:14.009Z,40.79
2023-07-17T06:55:47.265Z,40.91
2023-07-17T06:58:23.571Z,40.74
2023-07-17T07:01:25.712Z,41.31
2023-07-17T07:04:00.681Z,41.26
2023-07-17T07:06:31.555Z,41.41
2023-07-17T07:09:03.149Z,41.33
2023-07-17T07:11:34.020Z,41.12
2023-07-17T07:14:04.810Z,40.93
2023-07-17T07:16:35.765Z,40.82
2023-07-17T07:19:09.980Z,40.58
2023-07-17T07:21:41.086Z,40.51
2023-07-17T07:24:11.886Z,41.07
2023-07-17T07:26:55.820Z,40.71
2023-07-17T07:29:28.186Z,39.57
2023-07-17T07:31:59.149Z,38.84
2023-07-17T07:34:30.033Z,38.64
2023-07-17T07:37:00.813Z,38.11
2023-07-17T07:39:31.626Z,37.18
2023-07-17T07:42:02.398Z,37.38
2023-07-17T07:44:33.178Z,37.10
2023-07-17T07:47:04.583Z,36.22
2023-07-17T07:49:35.836Z,36.36
2023-07-17T07:52:08.926Z,36.67
2023-07-17T07:54:39.741Z,36.39
2023-07-17T07:57:10.660Z,36.38
2023-07-17T07:59:41.445Z,36.16
2023-07-17T08:02:12.984Z,35.80
2023-07-17T08:04:44.361Z,36.43
2023-07-17T08:07:15.088Z,36.30
2023-07-17T08:09:45.913Z,36.37
2023-07-17T08:12:16.687Z,35.42
2023-07-17T08:14:47.567Z,35.27
2023-07-17T08:17:18.347Z,35.12
2023-07-17T08:19:49.135Z,35.20
2023-07-17T08:22:20.047Z,35.01
2023-07-17T08:24:52.069Z,34.28
2023-07-17T08:27:22.827Z,34.20
2023-07-17T08:29:53.775Z,34.21
2023-07-17T08:32:24.634Z,34.31
2023-07-17T08:34:55.489Z,34.22
2023-07-17T08:37:26.543Z,34.18
2023-07-17T08:39:57.310Z,33.62
2023-07-17T08:42:28.314Z,33.11
2023-07-17T08:44:59.873Z,33.13
2023-07-17T08:47:31.465Z,32.96
2023-07-17T08:50:03.751Z,33.02
2023-07-17T08:52:46.824Z,33.22
2023-07-17T08:55:27.326Z,33.08
2023-07-17T08:58:00.540Z,33.79
2023-07-17T09:00:32.083Z,32.37
2023-07-17T09:03:03.039Z,32.07
2023-07-17T09:05:33.948Z,32.50
2023-07-17T09:08:05.026Z,32.45
2023-07-17T09:10:35.973Z,32.86
2023-07-17T09:13:06.743Z,32.84
2023-07-17T09:15:37.783Z,33.00
2023-07-17T09:18:08.726Z,32.66
2023-07-17T09:20:39.607Z,32.07
2023-07-17T09:23:10.567Z,31.58
2023-07-17T09:25:49.094Z,31.67
2023-07-17T09:28:19.930Z,31.90
2023-07-17T09:31:02.353Z,31.51
2023-07-17T09:33:38.027Z,31.72
2023-07-17T09:36:11.631Z,32.38
2023-07-17T09:38:42.485Z,31.95
2023-07-17T09:41:23.739Z,31.62
2023-07-17T09:44:01.931Z,31.88
2023-07-17T09:46:34.039Z,31.61
2023-07-17T09:49:08.478Z,31.83
2023-07-17T09:51:40.207Z,30.65
2023-07-17T09:54:15.069Z,30.46
2023-07-17T09:57:00.323Z,30.66
2023-07-17T09:59:36.393Z,30.69
2023-07-17T10:02:16.752Z,30.89
2023-07-17T10:04:52.593Z,30.55
2023-07-17T10:07:24.897Z,30.53
2023-07-17T10:09:56.089Z,30.16
2023-07-17T10:12:27.610Z,30.22
2023-07-17T10:14:59.836Z,29.98
2023-07-17T10:17:34.906Z,29.91
2023-07-17T10:20:11.582Z,30.30
2023-07-17T10:22:46.007Z,30.30
2023-07-17T10:25:28.234Z,30.45
2023-07-17T10:28:04.052Z,30.12
2023-07-17T10:30:36.257Z,29.82
2023-07-17T10:33:18.129Z,30.36
2023-07-17T10:35:51.425Z,30.58
2023-07-17T10:38:27.549Z,30.55
2023-07-17T10:41:06.711Z,30.54
2023-07-17T10:43:37.941Z,30.13
2023-07-17T10:46:12.647Z,29.58
2023-07-17T10:48:43.656Z,30.05
2023-07-17T10:51:14.892Z,29.84
2023-07-17T10:53:45.858Z,29.54
2023-07-17T10:56:16.805Z,29.74
2023-07-17T10:58:52.441Z,29.73
2023-07-17T11:01:23.307Z,29.67
2023-07-17T11:03:54.308Z,29.31
2023-07-17T11:06:35.466Z,29.71
2023-07-17T11:09:06.395Z,30.07
2023-07-17T11:11:38.275Z,29.48
2023-07-17T11:14:09.126Z,29.39
2023-07-17T11:16:41.909Z,28.79
2023-07-17T11:19:14.452Z,28.50
2023-07-17T11:21:49.047Z,28.70
2023-07-17T11:24:20.202Z,27.82
2023-07-17T11:26:51.063Z,28.90
2023-07-17T11:29:22.292Z,28.50
2023-07-17T11:31:59.314Z,28.96
2023-07-17T11:34:30.350Z,28.65
2023-07-17T11:37:01.197Z,28.56
2023-07-17T11:39:34.785Z,28.86
2023-07-17T11:42:14.456Z,28.76
2023-07-17T11:44:45.695Z,28.32
2023-07-17T11:47:25.800Z,27.74
2023-07-17T11:50:09.099Z,27.73
2023-07-17T11:52:39.957Z,26.56
2023-07-17T11:55:19.294Z,27.01
2023-07-17T11:58:03.193Z,27.22
2023-07-17T12:00:35.505Z,27.72
2023-07-17T12:03:06.320Z,26.45
2023-07-17T12:05:37.811Z,27.37
2023-07-17T12:08:09.367Z,27.33
2023-07-17T12:10:40.657Z,26.61
2023-07-17T12:13:24.687Z,26.47
2023-07-17T12:16:12.085Z,26.31
2023-07-17T12:18:50.812Z,26.30
2023-07-17T12:21:29.823Z,26.29
2023-07-17T12:24:15.973Z,27.24
2023-07-17T12:26:47.142Z,27.06
2023-07-17T12:29:17.929Z,26.73
2023-07-17T12:31:49.247Z,27.09
2023-07-17T12:34:20.153Z,27.05
2023-07-17T12:36:51.395Z,27.29
2023-07-17T12:39:22.611Z,26.76
2023-07-17T12:42:19.729Z,26.35
2023-07-17T12:44:50.608Z,26.01
2023-07-17T12:47:21.753Z,26.09
2023-07-17T12:49:52.898Z,26.20
2023-07-17T12:52:24.192Z,26.70
2023-07-17T12:54:55.583Z,25.99
2023-07-17T12:57:29.879Z,25.32
2023-07-17T13:00:03.090Z,25.68
2023-07-17T13:02:35.129Z,25.79
2023-07-17T13:05:08.395Z,25.74
2023-07-17T13:07:39.320Z,25.35
2023-07-17T13:10:11.637Z,25.75
2023-07-17T13:12:48.957Z,25.54
2023-07-17T13:15:20.764Z,25.35
2023-07-17T13:17:51.569Z,25.72
2023-07-17T13:20:22.385Z,25.89
2023-07-17T13:22:53.243Z,26.20
2023-07-17T13:25:24.196Z,25.76
2023-07-17T13:27:55.063Z,25.38
2023-07-17T13:30:25.892Z,25.19
2023-07-17T13:32:56.758Z,25.28
2023-07-17T13:35:28.106Z,25.44
2023-07-17T13:37:58.875Z,25.34
2023-07-17T13:40:29.723Z,25.46
2023-07-17T13:43:00.672Z,26.00
2023-07-17T13:45:31.553Z,25.71
2023-07-17T13:48:02.445Z,25.21
2023-07-17T13:50:33.292Z,25.24
2023-07-17T13:53:04.196Z,24.76
2023-07-17T13:55:35.018Z,24.81
2023-07-17T13:58:06.001Z,24.68
2023-07-17T14:00:37.166Z,25.19
2023-07-17T14:03:12.264Z,25.14
2023-07-17T14:05:43.290Z,24.52
2023-07-17T14:08:14.157Z,24.97
2023-07-17T14:10:44.953Z,24.57
2023-07-17T14:13:16.021Z,24.75
2023-07-17T14:15:46.772Z,25.10
2023-07-17T14:18:17.580Z,24.48
2023-07-17T14:20:48.514Z,24.93
2023-07-17T14:23:19.311Z,24.26
2023-07-17T14:25:50.091Z,24.09
2023-07-17T14:28:20.954Z,24.32
2023-07-17T14:30:51.719Z,24.33
2023-07-17T14:33:22.566Z,23.85
2023-07-17T14:35:53.361Z,24.26
2023-07-17T14:38:24.090Z,24.50
2023-07-17T14:40:54.884Z,24.55
2023-07-17T14:43:25.794Z,24.65
2023-07-17T14:45:56.610Z,24.18
2023-07-17T14:48:27.441Z,24.25
2023-07-17T14:50:58.368Z,24.40
2023-07-17T14:53:29.219Z,24.79
2023-07-17T14:56:00.005Z,24.73
2023-07-17T14:58:30.811Z,24.77
2023-07-17T15:01:01.627Z,24.72
2023-07-17T15:03:32.475Z,24.86
2023-07-17T15:06:03.392Z,24.88
2023-07-17T15:08:34.302Z,24.80
2023-07-17T15:11:06.905Z,24.78
2023-07-17T15:13:37.968Z,25.17
2023-07-17T15:16:09.028Z,25.45
2023-07-17T15:18:40.731Z,25.40
2023-07-17T15:21:13.075Z,25.46
2023-07-17T15:23:43.936Z,25.72
2023-07-17T15:26:14.656Z,25.86
2023-07-17T15:28:45.435Z,25.85
2023-07-17T15:31:16.262Z,25.82
2023-07-17T15:33:47.193Z,26.37
2023-07-17T15:36:18.161Z,25.84
2023-07-17T15:38:49.045Z,25.72
2023-07-17T15:41:20.037Z,25.29
2023-07-17T15:43:50.906Z,25.80
2023-07-17T15:46:21.855Z,25.72
2023-07-17T15:48:52.767Z,25.50
2023-07-17T15:51:23.564Z,25.60
2023-07-17T15:53:54.405Z,25.71
2023-07-17T15:56:25.333Z,26.11
2023-07-17T15:58:56.139Z,25.75
2023-07-17T16:01:26.997Z,25.94
2023-07-17T16:03:57.826Z,25.71
2023-07-17T16:06:28.543Z,25.83
2023-07-17T16:08:59.355Z,25.61
2023-07-17T16:11:30.067Z,25.89
2023-07-17T16:14:00.841Z,26.12
2023-07-17T16:16:31.764Z,26.47
2023-07-17T16:19:02.909Z,26.56
2023-07-17T16:21:33.909Z,26.61
2023-07-17T16:24:06.664Z,26.68
2023-07-17T16:26:39.232Z,26.62
2023-07-17T16:29:10.035Z,26.85
2023-07-17T16:31:40.890Z,26.86
2023-07-17T16:34:11.715Z,26.97
2023-07-17T16:36:43.904Z,27.17
2023-07-17T16:39:14.810Z,27.49
2023-07-17T16:41:45.702Z,27.50
2023-07-17T16:44:16.725Z,27.61
2023-07-17T16:46:47.543Z,27.95
2023-07-17T16:49:18.337Z,27.90
2023-07-17T16:51:49.134Z,28.10
2023-07-17T16:54:19.959Z,27.86
2023-07-17T16:56:50.814Z,28.11
2023-07-17T16:59:21.712Z,27.95
2023-07-17T17:01:52.533Z,27.88
2023-07-17T17:04:23.584Z,27.59
2023-07-17T17:06:54.522Z,27.10
2023-07-17T17:09:26.175Z,27.73
2023-07-17T17:11:56.970Z,27.64
2023-07-17T17:14:27.703Z,27.24
2023-07-17T17:16:58.539Z,27.50
2023-07-17T17:19:29.274Z,27.36
2023-07-17T17:22:00.431Z,27.40
2023-07-17T17:24:31.208Z,27.44
2023-07-17T17:27:01.962Z,27.65
2023-07-17T17:29:32.737Z,27.69
2023-07-17T17:32:05.056Z,27.96
2023-07-17T17:34:35.909Z,28.34
2023-07-17T17:37:08.381Z,28.73
2023-07-17T17:39:39.120Z,28.67
2023-07-17T17:42:10.158Z,28.73
2023-07-17T17:44:40.965Z,28.83
2023-07-17T17:47:11.718Z,29.11
2023-07-17T17:49:42.582Z,29.05
2023-07-17T17:52:13.311Z,29.10
2023-07-17T17:54:44.099Z,29.23
2023-07-17T17:57:14.846Z,29.44
2023-07-17T17:59:45.682Z,29.34
2023-07-17T18:02:16.389Z,29.46
2023-07-17T18:04:47.225Z,29.57
2023-07-17T18:07:17.976Z,29.86
2023-07-17T18:09:48.769Z,29.82
2023-07-17T18:12:19.569Z,29.90
2023-07-17T18:14:50.328Z,30.27
2023-07-17T18:17:21.243Z,30.25
2023-07-17T18:19:52.163Z,30.41
2023-07-17T18:22:23.537Z,30.68
2023-07-17T18:24:54.324Z,30.69
2023-07-17T18:27:25.053Z,30.79
2023-07-17T18:29:55.895Z,30.91
2023-07-17T18:32:26.725Z,30.99
2023-07-17T18:34:57.652Z,31.27
2023-07-17T18:37:28.345Z,31.32
2023-07-17T18:39:59.148Z,31.42
2023-07-17T18:42:29.928Z,31.43
2023-07-17T18:45:00.780Z,31.58
2023-07-17T18:47:31.620Z,31.64
2023-07-17T18:50:03.997Z,31.89
2023-07-17T18:52:34.759Z,31.95
2023-07-17T18:55:06.395Z,32.03
2023-07-17T18:57:37.142Z,32.14
2023-07-17T19:00:10.373Z,32.23
2023-07-17T19:02:41.692Z,32.31
2023-07-17T19:05:12.627Z,32.50
2023-07-17T19:07:43.369Z,32.74
2023-07-17T19:10:14.212Z,32.90
2023-07-17T19:12:45.039Z,33.10
2023-07-17T19:15:16.829Z,33.38
2023-07-17T19:17:47.589Z,33.45
2023-07-17T19:20:18.500Z,33.53
2023-07-17T19:22:49.362Z,33.84
2023-07-17T19:25:20.396Z,34.17
2023-07-17T19:27:51.378Z,34.26
2023-07-17T19:30:22.188Z,34.35
2023-07-17T19:32:53.056Z,34.57
2023-07-17T19:35:24.241Z,34.45
2023-07-17T19:37:55.395Z,34.44
2023-07-17T19:40:26.265Z,35.00
2023-07-17T19:42:57.111Z,34.72
2023-07-17T19:45:28.843Z,34.76
2023-07-17T19:47:59.580Z,34.83
2023-07-17T19:50:30.363Z,34.77
2023-07-17T19:53:01.082Z,35.20
2023-07-17T19:55:32.264Z,35.23
2023-07-17T19:58:02.988Z,35.28
2023-07-17T20:00:33.815Z,35.35
2023-07-17T20:03:05.021Z,35.50
2023-07-17T20:05:36.068Z,35.51
2023-07-17T20:08:08.985Z,35.67
2023-07-17T20:10:40.120Z,35.88
2023-07-17T20:13:10.884Z,36.01
2023-07-17T20:15:41.995Z,35.93
2023-07-17T20:18:12.927Z,36.17
2023-07-17T20:20:43.743Z,36.32
2023-07-17T20:23:14.579Z,36.55
2023-07-17T20:25:45.416Z,36.79
2023-07-17T20:28:16.511Z,37.39
2023-07-17T20:30:47.682Z,38.07
2023-07-17T20:33:18.490Z,38.09
2023-07-17T20:35:49.251Z,38.87
2023-07-17T20:38:20.139Z,39.93
2023-07-17T20:40:50.967Z,39.46
2023-07-17T20:43:21.809Z,38.66
2023-07-17T20:45:52.641Z,38.56
2023-07-17T20:48:23.708Z,38.55
2023-07-17T20:51:05.340Z,38.69
2023-07-17T20:53:36.236Z,39.31
2023-07-17T20:56:07.632Z,40.03
2023-07-17T20:58:38.996Z,40.53
2023-07-17T21:01:15.852Z,41.01
2023-07-17T21:03:46.776Z,42.10
2023-07-17T21:06:17.573Z,44.18
2023-07-17T21:08:48.310Z,44.84
2023-07-17T21:11:19.390Z,46.01
2023-07-17T21:13:50.474Z,47.47
2023-07-17T21:16:21.238Z,48.38
2023-07-17T21:18:51.986Z,49.25
2023-07-17T21:21:22.776Z,49.31
2023-07-17T21:23:53.554Z,49.67
2023-07-17T21:26:24.343Z,50.03
2023-07-17T21:28:59.118Z,52.74
2023-07-17T21:31:30.056Z,53.24
2023-07-17T21:34:01.444Z,53.24
2023-07-17T21:36:32.244Z,52.65
2023-07-17T21:39:03.004Z,53.02
2023-07-17T21:41:33.737Z,54.97
2023-07-17T21:44:04.717Z,55.41
2023-07-17T21:46:35.571Z,56.12
2023-07-17T21:49:06.236Z,57.11
2023-07-17T21:51:35.369Z,56.77
2023-07-17T21:54:06.208Z,57.11
2023-07-17T21:56:36.996Z,57.22
2023-07-17T21:59:07.775Z,57.20
2023-07-17T22:01:38.881Z,57.23
2023-07-17T22:04:09.660Z,57.24
2023-07-17T22:06:40.548Z,57.58
2023-07-17T22:09:11.410Z,57.92
2023-07-17T22:11:42.527Z,58.42
2023-07-17T22:14:13.258Z,58.62
2023-07-17T22:16:44.067Z,58.97
2023-07-17T22:19:14.867Z,59.28
2023-07-17T22:21:45.639Z,59.16
2023-07-17T22:24:16.385Z,59.89
2023-07-17T22:26:47.121Z,60.19
2023-07-17T22:29:17.877Z,60.40
2023-07-17T22:31:48.616Z,61.40
2023-07-17T22:34:19.321Z,61.52
2023-07-17T22:36:50.093Z,60.71
2023-07-17T22:39:20.761Z,60.72
2023-07-17T22:41:49.943Z,61.30
2023-07-17T22:44:20.879Z,61.19
2023-07-17T22:46:51.647Z,61.20
2023-07-17T22:49:22.787Z,61.24
2023-07-17T22:51:53.459Z,61.35
2023-07-17T22:54:22.712Z,61.63
2023-07-17T22:56:53.509Z,61.78
2023-07-17T22:59:22.721Z,61.27
2023-07-17T23:01:53.654Z,61.89
2023-07-17T23:04:24.544Z,61.35
2023-07-17T23:06:55.329Z,61.31
2023-07-17T23:09:26.269Z,61.74
2023-07-17T23:11:57.153Z,61.73
2023-07-17T23:14:28.107Z,62.12
2023-07-17T23:16:58.861Z,61.32
2023-07-17T23:19:28.076Z,61.58
2023-07-17T23:21:58.939Z,61.70
2023-07-17T23:24:29.720Z,61.71
2023-07-17T23:26:58.788Z,61.15
2023-07-17T23:29:29.551Z,61.44
2023-07-17T23:31:58.821Z,61.98
2023-07-17T23:34:29.657Z,62.15
2023-07-17T23:36:58.876Z,61.90
2023-07-17T23:39:29.702Z,61.64
2023-07-17T23:42:00.437Z,62.15
2023-07-17T23:44:29.637Z,62.28
2023-07-17T23:47:00.532Z,62.16
2023-07-17T23:49:31.310Z,63.22
2023-07-17T23:52:00.519Z,62.74
2023-07-17T23:54:31.352Z,62.50
2023-07-17T23:57:02.028Z,62.33
2023-07-17T23:59:31.245Z,62.43
